createdAt,value
2023-04-15T00:01:07.805Z,97983.16
2023-04-15T00:03:34.146Z,97965.81
2023-04-15T00:06:00.554Z,97944.09
2023-04-15T00:08:26.848Z,97920.00
2023-04-15T00:10:53.073Z,97903.78
2023-04-15T00:13:19.292Z,97895.50
2023-04-15T00:15:45.965Z,97882.81
2023-04-15T00:18:12.396Z,97867.81
2023-04-15T00:20:38.635Z,97849.28
2023-04-15T00:23:04.839Z,97819.50
2023-04-15T00:25:31.206Z,97789.97
2023-04-15T00:27:57.436Z,97761.16
2023-04-15T00:30:24.290Z,97734.47
2023-04-15T00:32:50.854Z,97712.97
2023-04-15T00:35:17.816Z,97687.25
2023-04-15T00:37:46.025Z,97701.56
2023-04-15T00:40:12.773Z,97675.34
2023-04-15T00:42:43.844Z,97664.69
2023-04-15T00:45:10.304Z,97643.19
2023-04-15T00:47:37.528Z,97627.44
2023-04-15T00:50:16.570Z,97614.56
2023-04-15T00:52:42.777Z,97604.88
2023-04-15T00:55:13.487Z,97589.16
2023-04-15T00:57:39.813Z,97576.78
2023-04-15T01:00:08.025Z,97556.34
2023-04-15T01:02:34.880Z,97533.03
2023-04-15T01:05:03.108Z,97510.28
2023-04-15T01:07:29.304Z,97473.53
2023-04-15T01:09:59.012Z,97396.31
2023-04-15T01:12:26.154Z,97358.97
2023-04-15T01:14:53.197Z,97331.06
2023-04-15T01:17:19.489Z,97306.69
2023-04-15T01:19:46.902Z,97264.97
2023-04-15T01:22:13.161Z,97245.59
2023-04-15T01:24:39.360Z,97209.34
2023-04-15T01:27:05.624Z,97165.31
2023-04-15T01:29:32.260Z,97114.25
2023-04-15T01:31:58.491Z,97076.19
2023-04-15T01:34:24.715Z,97046.31
2023-04-15T01:36:50.912Z,97035.50
2023-04-15T01:39:17.152Z,97000.75
2023-04-15T01:41:43.362Z,96969.38
2023-04-15T01:44:09.593Z,96937.84
2023-04-15T01:46:35.831Z,96908.59
2023-04-15T01:49:02.449Z,96849.78
2023-04-15T01:51:28.894Z,96773.59
2023-04-15T01:53:55.108Z,96759.13
2023-04-15T01:56:21.314Z,96758.38
2023-04-15T01:58:47.571Z,96744.97
2023-04-15T02:01:13.796Z,96730.66
2023-04-15T02:03:40.130Z,96706.13
2023-04-15T02:06:06.384Z,96683.59
2023-04-15T02:08:32.597Z,96647.78
2023-04-15T02:10:58.791Z,96632.25
2023-04-15T02:13:25.004Z,96608.94
2023-04-15T02:15:51.193Z,96580.91
2023-04-15T02:18:17.393Z,96566.75
2023-04-15T02:20:43.596Z,96554.56
2023-04-15T02:23:09.926Z,96517.22
2023-04-15T02:25:36.138Z,96471.38
2023-04-15T02:28:02.380Z,96438.56
2023-04-15T02:30:28.594Z,96420.13
2023-04-15T02:32:54.825Z,96393.94
2023-04-15T02:35:21.086Z,96368.78
2023-04-15T02:37:47.322Z,96356.59
2023-04-15T02:40:13.572Z,96343.22
2023-04-15T02:42:40.056Z,96317.75
2023-04-15T02:45:06.678Z,96299.31
2023-04-15T02:47:32.923Z,96269.31
2023-04-15T02:49:59.144Z,96246.44
2023-04-15T02:52:25.350Z,96244.16
2023-04-15T02:54:51.547Z,96228.31
2023-04-15T02:57:17.763Z,96208.66
2023-04-15T02:59:43.959Z,96196.47
2023-04-15T03:02:10.210Z,96160.22
2023-04-15T03:04:36.448Z,96145.53
2023-04-15T03:07:02.670Z,96118.03
2023-04-15T03:09:28.898Z,96085.22
2023-04-15T03:11:55.129Z,96068.16
2023-04-15T03:14:21.351Z,96009.03
2023-04-15T03:16:47.546Z,95997.47
2023-04-15T03:19:13.768Z,95984.97
2023-04-15T03:21:39.978Z,95984.13
2023-04-15T03:24:06.215Z,95956.81
2023-04-15T03:26:32.419Z,95953.03
2023-04-15T03:28:58.748Z,95939.00
2023-04-15T03:31:25.159Z,95935.34
2023-04-15T03:33:51.468Z,95924.66
2023-04-15T03:36:17.668Z,95915.38
2023-04-15T03:38:43.875Z,95901.34
2023-04-15T03:41:10.068Z,95897.25
2023-04-15T03:43:36.297Z,95891.31
2023-04-15T03:46:02.585Z,95888.41
2023-04-15T03:48:28.860Z,95884.28
2023-04-15T03:50:55.067Z,95876.94
2023-04-15T03:53:21.309Z,95842.09
2023-04-15T03:55:47.518Z,95831.41
2023-04-15T03:58:13.752Z,95823.97
2023-04-15T04:00:40.165Z,95813.28
2023-04-15T04:03:08.499Z,95803.69
2023-04-15T04:05:34.809Z,95791.81
2023-04-15T04:08:01.128Z,95797.00
2023-04-15T04:10:27.349Z,95798.84
2023-04-15T04:12:53.604Z,95781.88
2023-04-15T04:15:19.842Z,95778.19
2023-04-15T04:17:46.134Z,95773.00
2023-04-15T04:20:12.385Z,95771.56
2023-04-15T04:22:38.887Z,95768.94
2023-04-15T04:25:05.277Z,95761.91
2023-04-15T04:27:31.489Z,95784.53
2023-04-15T04:29:57.688Z,95777.84
2023-04-15T04:32:23.921Z,95774.63
2023-04-15T04:34:50.124Z,95763.50
2023-04-15T04:37:16.365Z,95763.19
2023-04-15T04:39:42.562Z,95764.69
2023-04-15T04:42:08.756Z,95765.44
2023-04-15T04:44:34.965Z,95753.22
2023-04-15T04:47:01.157Z,95757.66
2023-04-15T04:49:27.380Z,95743.28
2023-04-15T04:51:53.574Z,95750.31
2023-04-15T04:54:19.798Z,95709.34
2023-04-15T04:56:45.996Z,95705.00
2023-04-15T04:59:12.217Z,95699.16
2023-04-15T05:01:38.598Z,95683.41
2023-04-15T05:04:05.333Z,95692.59
2023-04-15T05:06:31.800Z,95681.25
2023-04-15T05:08:58.006Z,95674.66
2023-04-15T05:11:24.202Z,95651.00
2023-04-15T05:13:50.407Z,95637.75
2023-04-15T05:16:16.736Z,95640.41
2023-04-15T05:18:43.003Z,95615.34
2023-04-15T05:21:09.224Z,95585.78
2023-04-15T05:23:35.445Z,95553.59
2023-04-15T05:26:01.683Z,95539.94
2023-04-15T05:28:27.941Z,95530.03
2023-04-15T05:30:54.250Z,95492.38
2023-04-15T05:33:20.488Z,95468.34
2023-04-15T05:35:46.692Z,95448.13
2023-04-15T05:38:12.907Z,95443.63
2023-04-15T05:40:39.109Z,95430.38
2023-04-15T05:43:07.650Z,95420.03
2023-04-15T05:45:33.863Z,95416.78
2023-04-15T05:48:00.119Z,95415.31
2023-04-15T05:50:26.391Z,95401.00
2023-04-15T05:52:52.619Z,95400.31
2023-04-15T05:55:18.846Z,95383.72
2023-04-15T05:57:45.058Z,95395.19
2023-04-15T06:00:11.441Z,95390.00
2023-04-15T06:02:37.908Z,95382.72
2023-04-15T06:05:04.372Z,95384.56
2023-04-15T06:07:30.633Z,95368.38
2023-04-15T06:09:56.837Z,95376.88
2023-04-15T06:12:23.057Z,95371.06
2023-04-15T06:14:49.266Z,95375.91
2023-04-15T06:17:15.486Z,95361.94
2023-04-15T06:19:41.687Z,95367.13
2023-04-15T06:22:07.926Z,95358.69
2023-04-15T06:24:34.130Z,95340.25
2023-04-15T06:27:00.340Z,95331.09
2023-04-15T06:29:26.571Z,95332.59
2023-04-15T06:31:52.878Z,95298.69
2023-04-15T06:34:19.311Z,95307.25
2023-04-15T06:36:45.516Z,95317.31
2023-04-15T06:39:11.722Z,95269.22
2023-04-15T06:41:37.931Z,95283.03
2023-04-15T06:44:04.189Z,95277.56
2023-04-15T06:46:30.394Z,95340.03
2023-04-15T06:48:56.618Z,95435.63
2023-04-15T06:51:23.417Z,95581.34
2023-04-15T06:53:51.289Z,95853.31
2023-04-15T06:56:17.487Z,96023.78
2023-04-15T06:58:43.712Z,96139.72
2023-04-15T07:01:10.015Z,96427.44
2023-04-15T07:03:36.298Z,96796.00
2023-04-15T07:06:02.511Z,97046.22
2023-04-15T07:08:28.740Z,97285.44
2023-04-15T07:10:54.949Z,97512.16
2023-04-15T07:13:21.169Z,97663.03
2023-04-15T07:15:47.386Z,97741.06
2023-04-15T07:18:13.601Z,97889.03
2023-04-15T07:20:39.898Z,97984.31
2023-04-15T07:23:06.122Z,98111.50
2023-04-15T07:25:32.337Z,98256.88
2023-04-15T07:27:58.547Z,98424.22
2023-04-15T07:30:24.755Z,98529.22
2023-04-15T07:32:51.007Z,98567.63
2023-04-15T07:35:17.255Z,98612.66
2023-04-15T07:37:43.475Z,98688.63
2023-04-15T07:40:09.868Z,98765.97
2023-04-15T07:42:36.075Z,98792.19
2023-04-15T07:45:02.282Z,98918.22
2023-04-15T07:47:28.527Z,99052.22
2023-04-15T07:49:54.764Z,99087.50
2023-04-15T07:52:20.986Z,99194.88
2023-04-15T07:54:47.218Z,99257.03
2023-04-15T07:57:13.447Z,99246.31
2023-04-15T07:59:39.673Z,99254.97
2023-04-15T08:02:05.938Z,99291.81
2023-04-15T08:04:32.270Z,99375.56
2023-04-15T08:06:58.582Z,99392.41
2023-04-15T08:09:24.808Z,99401.72
2023-04-15T08:11:51.015Z,99427.91
2023-04-15T08:14:17.230Z,99453.34
2023-04-15T08:16:43.444Z,99441.75
2023-04-15T08:19:09.683Z,99515.50
2023-04-15T08:21:36.098Z,99516.03
2023-04-15T08:24:02.306Z,99538.66
2023-04-15T08:26:28.563Z,99560.63
2023-04-15T08:28:54.875Z,99542.31
2023-04-15T08:31:21.124Z,99559.53
2023-04-15T08:33:47.365Z,99604.69
2023-04-15T08:36:13.579Z,99628.06
2023-04-15T08:38:39.896Z,99627.94
2023-04-15T08:41:12.292Z,99668.47
2023-04-15T08:43:42.664Z,99678.75
2023-04-15T08:46:08.880Z,99686.09
2023-04-15T08:48:35.092Z,99727.84
2023-04-15T08:51:01.319Z,99730.91
2023-04-15T08:53:28.820Z,99765.38
2023-04-15T08:55:55.103Z,99775.44
2023-04-15T08:58:21.358Z,99776.75
2023-04-15T09:00:47.587Z,99815.16
2023-04-15T09:03:13.866Z,99830.28
2023-04-15T09:05:40.129Z,99852.47
2023-04-15T09:08:06.385Z,99840.78
2023-04-15T09:10:33.903Z,99866.47
2023-04-15T09:13:00.583Z,99886.66
2023-04-15T09:15:26.785Z,99904.06
2023-04-15T09:17:53.033Z,99907.13
2023-04-15T09:20:19.327Z,99923.28
2023-04-15T09:22:46.504Z,99920.03
2023-04-15T09:25:15.694Z,99949.34
2023-04-15T09:27:51.232Z,99960.66
2023-04-15T09:30:17.647Z,99970.59
2023-04-15T09:32:49.917Z,99985.25
2023-04-15T09:35:16.219Z,100028.41
2023-04-15T09:37:42.417Z,100039.59
2023-04-15T09:40:08.746Z,100031.34
2023-04-15T09:42:34.966Z,100000.41
2023-04-15T09:45:10.783Z,99992.63
2023-04-15T09:47:37.054Z,100020.00
2023-04-15T09:50:03.362Z,100012.00
2023-04-15T09:52:29.678Z,99963.31
2023-04-15T09:54:59.130Z,100007.88
2023-04-15T09:57:25.465Z,100069.44
2023-04-15T09:59:51.692Z,100045.25
2023-04-15T10:02:18.565Z,100024.81
2023-04-15T10:04:44.919Z,100046.06
2023-04-15T10:07:11.714Z,100051.41
2023-04-15T10:09:41.023Z,100085.75
2023-04-15T10:12:07.237Z,100090.25
2023-04-15T10:14:34.089Z,100014.69
2023-04-15T10:17:03.289Z,99980.03
2023-04-15T10:19:31.121Z,100042.56
2023-04-15T10:21:57.927Z,100113.81
2023-04-15T10:24:24.150Z,100072.06
2023-04-15T10:26:50.923Z,100033.31
2023-04-15T10:29:17.129Z,100066.25
2023-04-15T10:31:43.386Z,100087.28
2023-04-15T10:34:09.610Z,100131.31
2023-04-15T10:36:35.829Z,100198.75
2023-04-15T10:39:02.081Z,100176.00
2023-04-15T10:41:28.524Z,100178.56
2023-04-15T10:44:04.440Z,100210.06
2023-04-15T10:46:45.985Z,100289.69
2023-04-15T10:49:15.886Z,100279.66
2023-04-15T10:51:46.024Z,100220.16
2023-04-15T10:54:15.717Z,100177.97
2023-04-15T10:56:42.572Z,100190.09
2023-04-15T10:59:09.182Z,100168.28
2023-04-15T11:01:54.867Z,100233.16
2023-04-15T11:04:41.746Z,100159.56
2023-04-15T11:07:09.227Z,100112.63
2023-04-15T11:09:35.440Z,100148.25
2023-04-15T11:12:05.271Z,99988.78
2023-04-15T11:14:32.631Z,99993.88
2023-04-15T11:16:58.843Z,100045.28
2023-04-15T11:19:25.063Z,100090.34
2023-04-15T11:21:51.262Z,100118.91
2023-04-15T11:24:24.018Z,100109.41
2023-04-15T11:26:50.692Z,100066.22
2023-04-15T11:29:18.107Z,100106.66
2023-04-15T11:31:47.004Z,100054.25
2023-04-15T11:34:13.238Z,99948.59
2023-04-15T11:36:39.455Z,100130.63
2023-04-15T11:39:06.876Z,100158.78
2023-04-15T11:41:33.099Z,100171.63
2023-04-15T11:43:59.313Z,100241.75
2023-04-15T11:46:29.104Z,100264.84
2023-04-15T11:48:55.308Z,100283.31
2023-04-15T11:51:21.534Z,100316.38
2023-04-15T11:53:48.312Z,100365.44
2023-04-15T11:56:24.466Z,100392.41
2023-04-15T11:58:54.517Z,100410.81
2023-04-15T12:01:20.759Z,100402.91
2023-04-15T12:03:47.233Z,100391.06
2023-04-15T12:06:23.111Z,100389.00
2023-04-15T12:08:50.106Z,100373.00
2023-04-15T12:11:35.533Z,100328.22
2023-04-15T12:14:06.214Z,100333.72
2023-04-15T12:16:35.835Z,100319.75
2023-04-15T12:19:07.293Z,100260.50
2023-04-15T12:21:34.532Z,100268.28
2023-04-15T12:24:01.962Z,100276.06
2023-04-15T12:26:31.915Z,100250.19
2023-04-15T12:29:01.531Z,100255.66
2023-04-15T12:31:27.776Z,100258.84
2023-04-15T12:33:57.467Z,100285.09
2023-04-15T12:36:23.757Z,100272.78
2023-04-15T12:38:50.023Z,100269.34
2023-04-15T12:41:16.239Z,100307.88
2023-04-15T12:43:44.465Z,100303.75
2023-04-15T12:46:10.678Z,100317.19
2023-04-15T12:48:36.915Z,100353.88
2023-04-15T12:51:05.583Z,100378.00
2023-04-15T12:53:31.967Z,100418.09
2023-04-15T12:55:58.172Z,100400.72
2023-04-15T12:58:24.385Z,100301.88
2023-04-15T13:00:50.577Z,100287.91
2023-04-15T13:03:16.985Z,100307.38
2023-04-15T13:05:43.275Z,100281.09
2023-04-15T13:08:09.475Z,100204.47
2023-04-15T13:10:35.676Z,100213.06
2023-04-15T13:13:02.069Z,100087.63
2023-04-15T13:15:28.271Z,100088.03
2023-04-15T13:17:54.585Z,100052.38
2023-04-15T13:20:20.839Z,100058.56
2023-04-15T13:22:47.053Z,100058.06
2023-04-15T13:25:13.252Z,99993.13
2023-04-15T13:27:39.471Z,100055.06
2023-04-15T13:30:06.202Z,100064.00
2023-04-15T13:32:32.496Z,100110.97
2023-04-15T13:34:58.751Z,100171.28
2023-04-15T13:37:28.221Z,100149.34
2023-04-15T13:39:54.627Z,100193.47
2023-04-15T13:42:21.283Z,100266.88
2023-04-15T13:44:47.478Z,100323.28
2023-04-15T13:47:13.684Z,100339.28
2023-04-15T13:49:39.973Z,100411.31
2023-04-15T13:52:06.247Z,100482.31
2023-04-15T13:54:37.474Z,100497.25
2023-04-15T13:57:04.772Z,100460.31
2023-04-15T13:59:30.992Z,100487.56
2023-04-15T14:01:57.327Z,100504.38
2023-04-15T14:04:23.817Z,100480.75
2023-04-15T14:06:50.486Z,100467.94
2023-04-15T14:09:16.708Z,100483.91
2023-04-15T14:11:42.930Z,100471.09
2023-04-15T14:14:09.143Z,100487.28
2023-04-15T14:16:35.382Z,100514.56
2023-04-15T14:19:01.964Z,100512.75
2023-04-15T14:21:28.226Z,100519.81
2023-04-15T14:23:54.435Z,100488.34
2023-04-15T14:26:20.694Z,100505.06
2023-04-15T14:28:46.911Z,100517.66
2023-04-15T14:31:13.175Z,100508.72
2023-04-15T14:33:39.442Z,100503.22
2023-04-15T14:36:06.148Z,100471.22
2023-04-15T14:38:33.922Z,100476.41
2023-04-15T14:41:00.136Z,100506.72
2023-04-15T14:43:26.375Z,100508.03
2023-04-15T14:45:52.666Z,100533.16
2023-04-15T14:48:18.941Z,100524.00
2023-04-15T14:50:45.156Z,100530.53
2023-04-15T14:53:11.389Z,100555.31
2023-04-15T14:55:37.603Z,100572.59
2023-04-15T14:58:03.825Z,100569.88
2023-04-15T15:00:30.035Z,100574.31
2023-04-15T15:02:56.325Z,100572.72
2023-04-15T15:05:22.629Z,100572.38
2023-04-15T15:07:48.947Z,100557.72
2023-04-15T15:10:15.148Z,100549.06
2023-04-15T15:12:41.380Z,100551.69
2023-04-15T15:15:19.396Z,100535.66
2023-04-15T15:17:51.719Z,100529.16
2023-04-15T15:20:17.963Z,100521.81
2023-04-15T15:22:44.461Z,100509.13
2023-04-15T15:25:10.683Z,100508.59
2023-04-15T15:27:38.246Z,100501.91
2023-04-15T15:30:04.703Z,100485.34
2023-04-15T15:32:30.946Z,100489.22
2023-04-15T15:34:57.189Z,100476.91
2023-04-15T15:37:23.405Z,100470.88
2023-04-15T15:39:49.620Z,100459.81
2023-04-15T15:42:15.998Z,100446.34
2023-04-15T15:44:42.205Z,100442.53
2023-04-15T15:47:08.456Z,100437.91
2023-04-15T15:49:34.676Z,100410.00
2023-04-15T15:52:00.896Z,100409.63
2023-04-15T15:54:27.131Z,100398.84
2023-04-15T15:56:53.347Z,100384.94
2023-04-15T15:59:19.565Z,100373.69
2023-04-15T16:01:45.806Z,100369.75
2023-04-15T16:04:12.134Z,100362.88
2023-04-15T16:06:38.527Z,100348.25
2023-04-15T16:09:04.895Z,100344.56
2023-04-15T16:11:31.240Z,100334.19
2023-04-15T16:13:57.465Z,100318.84
2023-04-15T16:16:23.700Z,100308.66
2023-04-15T16:18:49.995Z,100303.19
2023-04-15T16:21:16.207Z,100313.63
2023-04-15T16:23:42.438Z,100309.41
2023-04-15T16:26:08.680Z,100307.13
2023-04-15T16:28:34.908Z,100305.34
2023-04-15T16:31:01.131Z,100307.94
2023-04-15T16:33:27.359Z,100303.50
2023-04-15T16:35:53.562Z,100300.84
2023-04-15T16:38:19.784Z,100298.41
2023-04-15T16:40:46.013Z,100300.78
2023-04-15T16:43:12.212Z,100292.03
2023-04-15T16:45:38.577Z,100293.94
2023-04-15T16:48:05.023Z,100299.88
2023-04-15T16:50:31.360Z,100285.22
2023-04-15T16:52:57.580Z,100291.47
2023-04-15T16:55:23.802Z,100293.03
2023-04-15T16:58:01.172Z,100295.88
2023-04-15T17:00:29.065Z,100292.97
2023-04-15T17:02:55.368Z,100286.66
2023-04-15T17:05:21.678Z,100288.00
2023-04-15T17:07:47.879Z,100281.75
2023-04-15T17:10:14.111Z,100285.16
2023-04-15T17:12:40.335Z,100273.88
2023-04-15T17:15:06.876Z,100283.03
2023-04-15T17:17:33.151Z,100274.91
2023-04-15T17:19:59.390Z,100277.22
2023-04-15T17:22:25.617Z,100274.63
2023-04-15T17:24:51.835Z,100272.81
2023-04-15T17:27:18.040Z,100269.66
2023-04-15T17:29:44.272Z,100270.44
2023-04-15T17:32:10.490Z,100273.03
2023-04-15T17:34:49.841Z,100264.69
2023-04-15T17:37:17.395Z,100259.13
2023-04-15T17:39:43.607Z,100255.75
2023-04-15T17:42:12.953Z,100253.47
2023-04-15T17:44:39.384Z,100254.25
2023-04-15T17:47:05.600Z,100250.00
2023-04-15T17:49:31.823Z,100243.50
2023-04-15T17:51:58.040Z,100241.94
2023-04-15T17:54:24.256Z,100245.84
2023-04-15T17:56:50.449Z,100244.78
2023-04-15T17:59:16.684Z,100246.09
2023-04-15T18:01:42.915Z,100250.00
2023-04-15T18:04:09.494Z,100250.25
2023-04-15T18:06:35.991Z,100254.13
2023-04-15T18:09:02.377Z,100253.56
2023-04-15T18:11:28.718Z,100264.78
2023-04-15T18:13:54.941Z,100268.97
2023-04-15T18:16:21.178Z,100276.78
2023-04-15T18:18:47.412Z,100286.28
2023-04-15T18:21:13.946Z,100285.63
2023-04-15T18:23:40.302Z,100274.44
2023-04-15T18:26:06.508Z,100271.13
2023-04-15T18:28:32.705Z,100280.00
2023-04-15T18:30:58.922Z,100281.16
2023-04-15T18:33:25.139Z,100273.56
2023-04-15T18:35:51.360Z,100269.25
2023-04-15T18:38:17.566Z,100250.38
2023-04-15T18:40:43.795Z,100245.78
2023-04-15T18:43:10.017Z,100245.72
2023-04-15T18:45:36.273Z,100227.03
2023-04-15T18:48:02.671Z,100214.84
2023-04-15T18:50:28.930Z,100205.84
2023-04-15T18:52:55.132Z,100187.25
2023-04-15T18:55:22.256Z,100171.78
2023-04-15T18:57:48.637Z,100154.19
2023-04-15T19:00:15.175Z,100147.41
2023-04-15T19:02:41.584Z,100129.69
2023-04-15T19:05:08.118Z,100118.81
2023-04-15T19:07:34.684Z,100093.06
2023-04-15T19:10:13.916Z,100070.38
2023-04-15T19:12:40.130Z,100050.78
2023-04-15T19:15:06.599Z,100028.75
2023-04-15T19:17:32.874Z,100008.44
2023-04-15T19:19:59.127Z,99994.34
2023-04-15T19:22:25.374Z,99987.28
2023-04-15T19:24:51.598Z,99961.66
2023-04-15T19:27:17.803Z,99948.69
2023-04-15T19:29:44.028Z,99939.03
2023-04-15T19:32:10.241Z,99924.50
2023-04-15T19:34:36.473Z,99897.41
2023-04-15T19:37:02.690Z,99883.56
2023-04-15T19:39:28.909Z,99872.69
2023-04-15T19:41:55.486Z,99849.28
2023-04-15T19:44:21.752Z,99839.69
2023-04-15T19:46:47.952Z,99821.75
2023-04-15T19:49:14.159Z,99812.50
2023-04-15T19:51:40.900Z,99795.59
2023-04-15T19:54:07.105Z,99777.72
2023-04-15T19:56:34.479Z,99770.47
2023-04-15T19:59:00.818Z,99763.72
2023-04-15T20:01:27.094Z,99748.13
2023-04-15T20:03:53.427Z,99729.75
2023-04-15T20:06:19.757Z,99712.91
2023-04-15T20:08:45.964Z,99705.34
2023-04-15T20:11:12.182Z,99684.34
2023-04-15T20:13:41.423Z,99669.38
2023-04-15T20:16:07.983Z,99666.78
2023-04-15T20:18:34.277Z,99650.97
2023-04-15T20:21:00.542Z,99634.38
2023-04-15T20:23:26.770Z,99624.25
2023-04-15T20:25:52.981Z,99617.75
2023-04-15T20:28:19.189Z,99599.09
2023-04-15T20:30:45.482Z,99582.78
2023-04-15T20:33:11.721Z,99581.75
2023-04-15T20:35:38.021Z,99572.41
2023-04-15T20:38:04.220Z,99576.31
2023-04-15T20:40:30.441Z,99569.09
2023-04-15T20:42:56.655Z,99564.94
2023-04-15T20:45:22.887Z,99555.06
2023-04-15T20:47:49.113Z,99548.59
2023-04-15T20:50:15.342Z,99541.31
2023-04-15T20:52:41.555Z,99533.81
2023-04-15T20:55:07.933Z,99540.22
2023-04-15T20:57:34.160Z,99529.31
2023-04-15T21:00:03.004Z,99522.78
2023-04-15T21:02:29.368Z,99533.72
2023-04-15T21:04:55.713Z,99522.78
2023-04-15T21:07:24.804Z,99528.78
2023-04-15T21:09:51.018Z,99524.66
2023-04-15T21:12:18.486Z,99530.09
2023-04-15T21:14:44.692Z,99532.19
2023-04-15T21:17:15.363Z,99534.00
2023-04-15T21:19:41.720Z,99526.00
2023-04-15T21:22:08.012Z,99523.94
2023-04-15T21:24:34.220Z,99536.91
2023-04-15T21:27:00.431Z,99531.47
2023-04-15T21:29:26.653Z,99528.34
2023-04-15T21:31:52.905Z,99536.66
2023-04-15T21:34:19.150Z,99540.81
2023-04-15T21:36:45.583Z,99547.84
2023-04-15T21:39:11.793Z,99552.25
2023-04-15T21:41:38.018Z,99557.69
2023-04-15T21:44:04.242Z,99558.47
2023-04-15T21:46:32.912Z,99562.09
2023-04-15T21:48:59.611Z,99563.88
2023-04-15T21:51:25.820Z,99563.66
2023-04-15T21:53:52.015Z,99574.81
2023-04-15T21:56:18.239Z,99588.81
2023-04-15T21:58:44.449Z,99580.53
2023-04-15T22:01:10.733Z,99578.94
2023-04-15T22:03:37.161Z,99578.13
2023-04-15T22:06:03.484Z,99575.72
2023-04-15T22:08:31.007Z,99563.84
2023-04-15T22:11:00.001Z,99572.41
2023-04-15T22:13:26.208Z,99576.28
2023-04-15T22:15:52.421Z,99584.03
2023-04-15T22:18:18.626Z,99592.56
2023-04-15T22:20:44.838Z,99588.91
2023-04-15T22:23:11.035Z,99589.72
2023-04-15T22:25:37.289Z,99592.06
2023-04-15T22:28:06.583Z,99594.41
2023-04-15T22:30:33.239Z,99597.50
2023-04-15T22:32:59.464Z,99595.69
2023-04-15T22:35:25.712Z,99610.22
2023-04-15T22:37:52.097Z,99608.66
2023-04-15T22:40:18.305Z,99616.66
2023-04-15T22:42:45.404Z,99622.66
2023-04-15T22:45:11.624Z,99616.88
2023-04-15T22:47:37.868Z,99620.50
2023-04-15T22:50:04.649Z,99618.69
2023-04-15T22:52:31.455Z,99616.09
2023-04-15T22:54:57.988Z,99611.47
2023-04-15T22:57:24.209Z,99623.66
2023-04-15T22:59:50.416Z,99617.66
2023-04-15T23:02:16.817Z,99626.47
2023-04-15T23:04:43.301Z,99614.28
2023-04-15T23:07:09.566Z,99610.59
2023-04-15T23:09:35.777Z,99611.41
2023-04-15T23:12:02.195Z,99599.22
2023-04-15T23:14:28.396Z,99602.03
2023-04-15T23:16:54.605Z,99596.59
2023-04-15T23:19:20.835Z,99585.75
2023-04-15T23:21:47.074Z,99585.69
2023-04-15T23:24:13.290Z,99579.22
2023-04-15T23:26:39.515Z,99589.38
2023-04-15T23:29:05.718Z,99593.47
2023-04-15T23:31:31.971Z,99585.69
2023-04-15T23:33:58.200Z,99590.09
2023-04-15T23:36:24.429Z,99590.09
2023-04-15T23:38:50.639Z,99585.44
2023-04-15T23:41:16.855Z,99595.56
2023-04-15T23:43:43.079Z,99592.16
2023-04-15T23:46:09.311Z,99582.59
2023-04-15T23:48:35.523Z,99584.09
2023-04-15T23:51:01.752Z,99582.28
2023-04-15T23:53:27.945Z,99568.19
2023-04-15T23:55:54.152Z,99564.34
2023-04-15T23:58:20.357Z,99562.31
